createdAt,value
2016-12-07T00:00:42.090Z,29.8
2016-12-07T00:01:44.804Z,29.8
2016-12-07T00:02:44.842Z,29.8
2016-12-07T00:03:41.649Z,29.7
2016-12-07T00:04:45.083Z,29.8
2016-12-07T00:05:41.755Z,29.7
2016-12-07T00:06:41.984Z,29.8
2016-12-07T00:07:42.059Z,29.7
2016-12-07T00:08:45.302Z,29.8
2016-12-07T00:09:41.996Z,29.7
2016-12-07T00:10:45.284Z,29.7
2016-12-07T00:11:42.092Z,29.8
2016-12-07T00:12:45.484Z,29.8
2016-12-07T00:13:45.550Z,29.7
2016-12-07T00:14:45.512Z,29.7
2016-12-07T00:15:42.438Z,29.8
2016-12-07T00:16:42.455Z,29.8
2016-12-07T00:17:45.590Z,29.8
2016-12-07T00:18:42.487Z,29.8
2016-12-07T00:19:45.656Z,29.7
2016-12-07T00:20:42.511Z,29.7
2016-12-07T00:21:42.685Z,29.7
2016-12-07T00:22:45.940Z,29.7
2016-12-07T00:23:45.907Z,29.7
2016-12-07T00:24:42.619Z,29.7
2016-12-07T00:25:42.813Z,29.7
2016-12-07T00:26:46.017Z,29.7
2016-12-07T00:27:42.895Z,29.7
2016-12-07T00:28:46.227Z,29.7
2016-12-07T00:29:43.036Z,29.7
2016-12-07T00:30:46.231Z,29.7
2016-12-07T00:31:46.244Z,29.7
2016-12-07T00:32:46.256Z,29.7
2016-12-07T00:33:42.956Z,29.7
2016-12-07T00:34:46.273Z,29.7
2016-12-07T00:35:46.437Z,29.7
2016-12-07T00:36:43.204Z,29.7
2016-12-07T00:37:43.303Z,29.7
2016-12-07T00:38:43.325Z,29.7
2016-12-07T00:39:43.428Z,29.7
2016-12-07T00:40:43.407Z,29.7
2016-12-07T00:41:43.316Z,29.7
2016-12-07T00:42:43.329Z,29.7
2016-12-07T00:43:46.604Z,29.7
2016-12-07T00:44:43.508Z,29.7
2016-12-07T00:45:46.841Z,29.7
2016-12-07T00:46:46.934Z,29.6
2016-12-07T00:47:47.057Z,29.7
2016-12-07T00:48:46.968Z,29.7
2016-12-07T00:49:43.887Z,29.6
2016-12-07T00:50:47.158Z,29.7
2016-12-07T00:51:43.926Z,29.7
2016-12-07T00:52:47.162Z,29.7
2016-12-07T00:53:44.101Z,29.7
2016-12-07T00:54:47.270Z,29.7
2016-12-07T00:55:44.054Z,29.6
2016-12-07T00:56:47.463Z,29.6
2016-12-07T00:57:47.459Z,29.7
2016-12-07T00:58:44.257Z,29.7
2016-12-07T00:59:47.476Z,29.6
2016-12-07T01:00:47.651Z,29.6
2016-12-07T01:01:44.364Z,29.7
2016-12-07T01:02:44.567Z,29.6
2016-12-07T01:03:44.581Z,29.7
2016-12-07T01:04:47.855Z,29.6
2016-12-07T01:05:47.807Z,29.6
2016-12-07T01:06:47.803Z,29.6
2016-12-07T01:07:47.853Z,29.6
2016-12-07T01:08:48.037Z,29.6
2016-12-07T01:09:45.453Z,29.6
2016-12-07T01:10:48.071Z,29.6
2016-12-07T01:11:48.062Z,29.6
2016-12-07T01:12:44.965Z,29.6
2016-12-07T01:13:48.292Z,29.6
2016-12-07T01:14:48.420Z,29.6
2016-12-07T01:15:45.063Z,29.6
2016-12-07T01:16:48.363Z,29.6
2016-12-07T01:17:45.295Z,29.6
2016-12-07T01:18:45.164Z,29.6
2016-12-07T01:19:48.526Z,29.6
2016-12-07T01:20:45.282Z,29.6
2016-12-07T01:21:45.311Z,29.6
2016-12-07T01:22:48.589Z,29.6
2016-12-07T01:23:45.545Z,29.6
2016-12-07T01:24:45.446Z,29.6
2016-12-07T01:25:48.867Z,29.6
2016-12-07T01:26:45.599Z,29.6
2016-12-07T01:27:45.614Z,29.6
2016-12-07T01:28:48.767Z,29.6
2016-12-07T01:29:48.798Z,29.6
2016-12-07T01:30:45.748Z,29.5
2016-12-07T01:31:45.810Z,29.6
2016-12-07T01:32:45.673Z,29.6
2016-12-07T01:33:48.994Z,29.6
2016-12-07T01:34:49.134Z,29.6
2016-12-07T01:35:45.909Z,29.6
2016-12-07T01:36:45.781Z,29.6
2016-12-07T01:37:49.075Z,29.6
2016-12-07T01:38:49.251Z,29.6
2016-12-07T01:39:45.947Z,29.6
2016-12-07T01:40:49.162Z,29.6
2016-12-07T01:41:49.190Z,29.5
2016-12-07T01:42:45.971Z,29.6
2016-12-07T01:43:49.353Z,29.6
2016-12-07T01:44:46.091Z,29.6
2016-12-07T01:45:46.109Z,29.6
2016-12-07T01:46:46.343Z,29.5
2016-12-07T01:47:46.196Z,29.6
2016-12-07T01:48:49.483Z,29.6
2016-12-07T01:49:49.585Z,29.6
2016-12-07T01:50:49.736Z,29.6
2016-12-07T01:51:46.447Z,29.6
2016-12-07T01:52:46.465Z,29.6
2016-12-07T01:53:46.586Z,29.6
2016-12-07T01:54:49.819Z,29.5
2016-12-07T01:55:49.990Z,29.6
2016-12-07T01:56:46.594Z,29.6
2016-12-07T01:57:50.009Z,29.6
2016-12-07T01:58:49.939Z,29.6
2016-12-07T01:59:49.999Z,29.6
2016-12-07T02:00:50.108Z,29.5
2016-12-07T02:01:46.831Z,29.6
2016-12-07T02:02:46.984Z,29.5
2016-12-07T02:03:50.317Z,29.5
2016-12-07T02:04:47.024Z,29.6
2016-12-07T02:05:47.051Z,29.5
2016-12-07T02:06:50.465Z,29.5
2016-12-07T02:07:47.171Z,29.5
2016-12-07T02:08:47.126Z,29.5
2016-12-07T02:09:50.402Z,29.5
2016-12-07T02:10:47.335Z,29.5
2016-12-07T02:11:50.575Z,29.5
2016-12-07T02:12:50.580Z,29.5
2016-12-07T02:13:47.278Z,29.5
2016-12-07T02:14:50.561Z,29.5
2016-12-07T02:15:47.489Z,29.5
2016-12-07T02:16:47.363Z,29.5
2016-12-07T02:17:50.808Z,29.5
2016-12-07T02:18:50.799Z,29.5
2016-12-07T02:19:47.590Z,29.5
2016-12-07T02:20:50.866Z,29.5
2016-12-07T02:21:47.526Z,29.5
2016-12-07T02:22:50.820Z,29.5
2016-12-07T02:23:50.866Z,29.5
2016-12-07T02:24:51.014Z,29.5
2016-12-07T02:25:51.131Z,29.5
2016-12-07T02:26:51.111Z,29.5
2016-12-07T02:27:47.972Z,29.5
2016-12-07T02:28:51.230Z,29.5
2016-12-07T02:29:51.328Z,29.5
2016-12-07T02:30:51.404Z,29.5
2016-12-07T02:31:48.163Z,29.5
2016-12-07T02:32:51.590Z,29.5
2016-12-07T02:33:51.541Z,29.5
2016-12-07T02:34:48.291Z,29.5
2016-12-07T02:35:48.602Z,29.5
2016-12-07T02:36:51.749Z,29.5
2016-12-07T02:37:48.650Z,29.5
2016-12-07T02:38:51.883Z,29.5
2016-12-07T02:39:51.814Z,29.5
2016-12-07T02:40:52.023Z,29.5
2016-12-07T02:41:48.821Z,29.5
2016-12-07T02:42:48.727Z,29.5
2016-12-07T02:43:52.050Z,29.5
2016-12-07T02:44:52.247Z,29.5
2016-12-07T02:45:49.044Z,29.5
2016-12-07T02:46:52.195Z,29.5
2016-12-07T02:47:49.207Z,29.5
2016-12-07T02:48:52.415Z,29.5
2016-12-07T02:49:52.458Z,29.5
2016-12-07T02:50:52.604Z,29.5
2016-12-07T02:51:49.243Z,29.5
2016-12-07T02:52:52.499Z,29.5
2016-12-07T02:53:52.631Z,29.5
2016-12-07T02:54:52.568Z,29.5
2016-12-07T02:55:52.666Z,29.5
2016-12-07T02:56:52.615Z,29.5
2016-12-07T02:57:52.747Z,29.5
2016-12-07T02:58:52.709Z,29.5
2016-12-07T02:59:49.569Z,29.5
2016-12-07T03:00:49.618Z,29.5
2016-12-07T03:01:49.745Z,29.5
2016-12-07T03:02:52.967Z,29.5
2016-12-07T03:03:50.084Z,29.5
2016-12-07T03:04:50.729Z,29.5
2016-12-07T03:05:49.874Z,29.5
2016-12-07T03:06:53.039Z,29.5
2016-12-07T03:07:53.177Z,29.5
2016-12-07T03:08:53.256Z,29.5
2016-12-07T03:09:54.816Z,29.5
2016-12-07T03:10:54.208Z,29.5
2016-12-07T03:11:53.748Z,29.5
2016-12-07T03:12:52.062Z,29.5
2016-12-07T03:13:54.183Z,29.5
2016-12-07T03:14:53.649Z,29.5
2016-12-07T03:15:51.930Z,29.5
2016-12-07T03:16:53.591Z,29.5
2016-12-07T03:17:50.415Z,29.5
2016-12-07T03:18:50.343Z,29.5
2016-12-07T03:19:50.386Z,29.4
2016-12-07T03:20:50.623Z,29.5
2016-12-07T03:21:50.645Z,29.5
2016-12-07T03:22:50.545Z,29.5
2016-12-07T03:23:50.627Z,29.5
2016-12-07T03:24:50.832Z,29.5
2016-12-07T03:25:50.909Z,29.5
2016-12-07T03:26:50.814Z,29.5
2016-12-07T03:27:54.229Z,29.5
2016-12-07T03:28:50.946Z,29.5
2016-12-07T03:29:50.956Z,29.5
2016-12-07T03:30:54.379Z,29.5
2016-12-07T03:31:54.462Z,29.4
2016-12-07T03:32:51.253Z,29.5
2016-12-07T03:33:54.597Z,29.5
2016-12-07T03:34:54.635Z,29.5
2016-12-07T03:35:54.567Z,29.4
2016-12-07T03:36:51.567Z,29.5
2016-12-07T03:38:51.729Z,29.5
2016-12-07T03:39:51.804Z,29.4
2016-12-07T03:40:55.209Z,29.4
2016-12-07T03:41:52.177Z,29.4
2016-12-07T03:42:55.311Z,29.4
2016-12-07T03:43:52.170Z,29.4
2016-12-07T03:44:52.244Z,29.4
2016-12-07T03:45:55.512Z,29.4
2016-12-07T03:46:55.540Z,29.4
2016-12-07T03:47:52.309Z,29.4
2016-12-07T03:48:55.590Z,29.4
2016-12-07T03:49:55.615Z,29.4
2016-12-07T03:50:55.657Z,29.4
2016-12-07T03:51:52.423Z,29.4
2016-12-07T03:52:55.745Z,29.4
2016-12-07T03:53:52.526Z,29.4
2016-12-07T03:54:55.789Z,29.4
2016-12-07T03:55:52.711Z,29.4
2016-12-07T03:56:55.911Z,29.4
2016-12-07T03:57:52.745Z,29.4
2016-12-07T03:58:52.708Z,29.4
2016-12-07T03:59:56.053Z,29.4
2016-12-07T04:00:56.085Z,29.4
2016-12-07T04:01:52.862Z,29.4
2016-12-07T04:02:56.132Z,29.4
2016-12-07T04:03:53.198Z,29.4
2016-12-07T04:04:56.472Z,29.4
2016-12-07T04:05:53.315Z,29.4
2016-12-07T04:06:53.305Z,29.4
2016-12-07T04:07:56.616Z,29.4
2016-12-07T04:08:53.424Z,29.4
2016-12-07T04:09:56.738Z,29.4
2016-12-07T04:10:53.522Z,29.4
2016-12-07T04:11:53.577Z,29.4
2016-12-07T04:12:53.653Z,29.4
2016-12-07T04:13:56.971Z,29.4
2016-12-07T04:14:57.044Z,29.4
2016-12-07T04:15:53.772Z,29.4
2016-12-07T04:16:56.967Z,29.4
2016-12-07T04:17:53.789Z,29.4
2016-12-07T04:18:53.840Z,29.4
2016-12-07T04:19:53.874Z,29.4
2016-12-07T04:20:57.167Z,29.4
2016-12-07T04:21:57.334Z,29.4
2016-12-07T04:22:57.393Z,29.4
2016-12-07T04:23:57.424Z,29.4
2016-12-07T04:24:57.433Z,29.4
2016-12-07T04:25:54.240Z,29.4
2016-12-07T04:26:54.399Z,29.3
2016-12-07T04:27:54.385Z,29.4
2016-12-07T04:28:57.593Z,29.3
2016-12-07T04:29:54.407Z,29.4
2016-12-07T04:30:54.394Z,29.4
2016-12-07T04:31:54.489Z,29.4
2016-12-07T04:32:54.542Z,29.4
2016-12-07T04:33:54.558Z,29.4
2016-12-07T04:34:57.693Z,29.3
2016-12-07T04:35:54.514Z,29.4
2016-12-07T04:36:54.538Z,29.4
2016-12-07T04:37:54.574Z,29.4
2016-12-07T04:38:54.627Z,29.4
2016-12-07T04:39:57.894Z,29.4
2016-12-07T04:40:57.897Z,29.3
2016-12-07T04:41:54.708Z,29.4
2016-12-07T04:42:58.020Z,29.4
2016-12-07T04:43:54.808Z,29.4
2016-12-07T04:44:54.856Z,29.4
2016-12-07T04:45:54.935Z,29.4
2016-12-07T04:46:55.015Z,29.4
2016-12-07T04:47:55.102Z,29.4
2016-12-07T04:48:58.358Z,29.4
2016-12-07T04:49:55.176Z,29.3
2016-12-07T04:50:58.422Z,29.4
2016-12-07T04:51:58.484Z,29.4
2016-12-07T04:52:55.335Z,29.4
2016-12-07T04:53:58.631Z,29.4
2016-12-07T04:54:55.419Z,29.4
2016-12-07T04:55:58.655Z,29.4
2016-12-07T04:56:58.750Z,29.4
2016-12-07T04:57:58.803Z,29.4
2016-12-07T04:58:55.614Z,29.4
2016-12-07T04:59:55.716Z,29.4
2016-12-07T05:00:55.724Z,29.3
2016-12-07T05:01:55.733Z,29.4
2016-12-07T05:02:58.980Z,29.4
2016-12-07T05:03:55.831Z,29.4
2016-12-07T05:04:59.143Z,29.4
2016-12-07T05:05:55.900Z,29.4
2016-12-07T05:06:59.230Z,29.4
2016-12-07T05:07:59.220Z,29.4
2016-12-07T05:08:59.311Z,29.4
2016-12-07T05:09:56.085Z,29.4
2016-12-07T05:10:59.326Z,29.4
2016-12-07T05:11:56.168Z,29.4
2016-12-07T05:12:56.208Z,29.3
2016-12-07T05:13:59.443Z,29.4
2016-12-07T05:15:00.467Z,29.4
2016-12-07T05:15:56.312Z,29.4
2016-12-07T05:16:59.629Z,29.4
2016-12-07T05:18:00.269Z,29.4
2016-12-07T05:18:59.742Z,29.4
2016-12-07T05:19:59.701Z,29.4
2016-12-07T05:20:56.537Z,29.4
2016-12-07T05:21:56.744Z,29.4
2016-12-07T05:22:56.810Z,29.4
2016-12-07T05:24:00.061Z,29.4
2016-12-07T05:25:00.064Z,29.4
2016-12-07T05:25:56.894Z,29.4
2016-12-07T05:26:57.019Z,29.4
2016-12-07T05:27:57.012Z,29.4
2016-12-07T05:29:00.386Z,29.5
2016-12-07T05:30:00.378Z,29.5
2016-12-07T05:31:00.444Z,29.5
2016-12-07T05:32:00.601Z,29.5
2016-12-07T05:33:00.615Z,29.5
2016-12-07T05:33:57.419Z,29.4
2016-12-07T05:34:57.461Z,29.5
2016-12-07T05:35:57.452Z,29.5
2016-12-07T05:36:57.452Z,29.5
2016-12-07T05:38:00.862Z,29.5
2016-12-07T05:38:57.644Z,29.5
2016-12-07T05:40:00.818Z,29.5
2016-12-07T05:40:57.669Z,29.5
2016-12-07T05:42:00.952Z,29.4
2016-12-07T05:43:01.082Z,29.5
2016-12-07T05:43:57.850Z,29.5
2016-12-07T05:45:01.134Z,29.5
2016-12-07T05:46:01.217Z,29.5
2016-12-07T05:47:01.333Z,29.5
2016-12-07T05:48:01.306Z,29.5
2016-12-07T05:48:58.058Z,29.5
2016-12-07T05:50:01.428Z,29.5
2016-12-07T05:50:58.189Z,29.5
2016-12-07T05:52:01.434Z,29.5
2016-12-07T05:52:58.304Z,29.5
2016-12-07T05:53:58.377Z,29.4
2016-12-07T05:55:01.687Z,29.4
2016-12-07T05:55:58.534Z,29.4
2016-12-07T05:57:01.861Z,29.4
2016-12-07T05:58:01.892Z,29.4
2016-12-07T05:59:01.963Z,29.4
2016-12-07T05:59:58.799Z,29.4
2016-12-07T06:01:02.025Z,29.4
2016-12-07T06:01:59.581Z,29.4
2016-12-07T06:02:58.850Z,29.4
2016-12-07T06:04:02.219Z,29.4
2016-12-07T06:04:59.045Z,29.5
2016-12-07T06:06:02.268Z,29.5
2016-12-07T06:07:02.273Z,29.5
2016-12-07T06:08:02.337Z,29.5
2016-12-07T06:08:59.176Z,29.5
2016-12-07T06:10:02.457Z,29.5
2016-12-07T06:11:02.498Z,29.5
2016-12-07T06:11:59.327Z,29.6
2016-12-07T06:13:00.082Z,29.6
2016-12-07T06:14:02.655Z,29.6
2016-12-07T06:14:59.454Z,29.6
2016-12-07T06:16:02.737Z,29.6
2016-12-07T06:17:02.946Z,29.6
2016-12-07T06:17:59.706Z,29.7
2016-12-07T06:18:59.745Z,29.7
2016-12-07T06:20:02.982Z,29.7
2016-12-07T06:20:59.752Z,29.7
2016-12-07T06:21:59.877Z,29.8
2016-12-07T06:23:03.160Z,29.8
2016-12-07T06:24:03.175Z,29.8
2016-12-07T06:24:59.958Z,29.8
2016-12-07T06:26:03.166Z,29.9
2016-12-07T06:27:03.229Z,29.9
2016-12-07T06:28:03.261Z,29.9
2016-12-07T06:29:03.350Z,29.9
2016-12-07T06:30:00.165Z,29.9
2016-12-07T06:31:01.501Z,29.9
2016-12-07T06:32:00.327Z,30
2016-12-07T06:33:00.408Z,30
2016-12-07T06:34:03.663Z,30
2016-12-07T06:35:00.523Z,30
2016-12-07T06:36:05.616Z,30
2016-12-07T06:37:01.741Z,30
2016-12-07T06:38:00.620Z,30
2016-12-07T06:39:00.717Z,30
2016-12-07T06:40:03.949Z,30.1
2016-12-07T06:41:00.759Z,30.1
2016-12-07T06:42:04.105Z,30.1
2016-12-07T06:43:01.633Z,30.1
2016-12-07T06:44:00.890Z,30.2
2016-12-07T06:45:04.770Z,30.1
2016-12-07T06:46:01.064Z,30.2
2016-12-07T06:47:04.927Z,30.2
2016-12-07T06:48:01.056Z,30.2
2016-12-07T06:49:01.176Z,30.2
2016-12-07T06:50:04.912Z,30.2
2016-12-07T06:51:02.573Z,30.3
2016-12-07T06:52:01.302Z,30.3
2016-12-07T06:53:04.597Z,30.3
2016-12-07T06:54:01.454Z,30.2
2016-12-07T06:55:05.302Z,30.3
2016-12-07T06:56:01.563Z,30.3
2016-12-07T06:57:05.371Z,30.3
2016-12-07T06:58:01.675Z,30.3
2016-12-07T06:59:01.386Z,30.3
2016-12-07T07:00:01.496Z,30.4
2016-12-07T07:01:01.509Z,30.4
2016-12-07T07:02:02.180Z,30.4
2016-12-07T07:03:06.956Z,30.4
2016-12-07T07:04:05.105Z,30.4
2016-12-07T07:05:06.126Z,30.4
2016-12-07T07:06:05.184Z,30.4
2016-12-07T07:07:05.096Z,30.4
2016-12-07T07:08:05.205Z,30.5
2016-12-07T07:09:01.952Z,30.5
2016-12-07T07:10:02.116Z,30.5
2016-12-07T07:11:02.006Z,30.5
2016-12-07T07:12:02.238Z,30.5
2016-12-07T07:13:02.301Z,30.5
2016-12-07T07:14:05.548Z,30.6
2016-12-07T07:15:05.620Z,30.6
2016-12-07T07:16:05.724Z,30.6
2016-12-07T07:17:05.666Z,30.6
2016-12-07T07:18:08.126Z,30.6
2016-12-07T07:19:05.776Z,30.6
2016-12-07T07:20:06.538Z,30.6
2016-12-07T07:21:07.178Z,30.6
2016-12-07T07:22:02.695Z,30.7
2016-12-07T07:23:05.834Z,30.7
2016-12-07T07:24:03.355Z,30.7
2016-12-07T07:25:02.648Z,30.7
2016-12-07T07:26:07.891Z,30.7
2016-12-07T07:27:03.293Z,30.8
2016-12-07T07:28:06.663Z,30.8
2016-12-07T07:29:06.159Z,30.8
2016-12-07T07:30:03.935Z,30.8
2016-12-07T07:31:06.246Z,30.9
2016-12-07T07:32:06.963Z,30.9
2016-12-07T07:33:06.465Z,30.8
2016-12-07T07:34:03.189Z,30.9
2016-12-07T07:35:06.373Z,30.9
2016-12-07T07:36:07.116Z,30.9
2016-12-07T07:37:06.587Z,30.9
2016-12-07T07:38:04.801Z,30.9
2016-12-07T07:39:06.896Z,30.9
2016-12-07T07:40:08.248Z,30.9
2016-12-07T07:41:04.454Z,31
2016-12-07T07:42:03.712Z,31
2016-12-07T07:43:08.140Z,31
2016-12-07T07:44:08.665Z,31
2016-12-07T07:45:03.951Z,31
2016-12-07T07:46:03.944Z,31
2016-12-07T07:47:07.885Z,31
2016-12-07T07:48:07.342Z,31
2016-12-07T07:49:05.557Z,31
2016-12-07T07:50:07.312Z,31
2016-12-07T07:51:04.087Z,31
2016-12-07T07:52:09.214Z,31.1
2016-12-07T07:53:04.238Z,31.1
2016-12-07T07:54:08.663Z,31.1
2016-12-07T07:55:08.886Z,31.1
2016-12-07T07:56:04.431Z,31.1
2016-12-07T07:57:04.425Z,31.1
2016-12-07T07:58:05.162Z,31.1
2016-12-07T07:59:07.873Z,31.2
2016-12-07T08:00:08.423Z,31.2
2016-12-07T08:01:08.407Z,31.1
2016-12-07T08:02:09.055Z,31.2
2016-12-07T08:03:04.799Z,31.2
2016-12-07T08:04:09.806Z,31.2
2016-12-07T08:05:11.404Z,31.2
2016-12-07T08:06:09.600Z,31.2
2016-12-07T08:07:05.478Z,31.2
2016-12-07T08:08:11.883Z,31.2
2016-12-07T08:09:09.516Z,31.2
2016-12-07T08:10:10.198Z,31.2
2016-12-07T08:11:06.057Z,31.2
2016-12-07T08:12:10.217Z,31.3
2016-12-07T08:13:05.539Z,31.3
2016-12-07T08:14:05.181Z,31.3
2016-12-07T08:15:08.351Z,31.4
2016-12-07T08:16:08.488Z,31.4
2016-12-07T08:17:09.042Z,31.4
2016-12-07T08:18:05.306Z,31.4
2016-12-07T08:19:11.977Z,31.4
2016-12-07T08:20:09.166Z,31.4
2016-12-07T08:21:05.330Z,31.5
2016-12-07T08:22:10.077Z,31.4
2016-12-07T08:23:05.499Z,31.5
2016-12-07T08:24:09.310Z,31.5
2016-12-07T08:25:05.507Z,31.5
2016-12-07T08:26:05.690Z,31.5
2016-12-07T08:27:10.900Z,31.5
2016-12-07T08:28:10.201Z,31.5
2016-12-07T08:29:09.623Z,31.5
2016-12-07T08:30:10.861Z,31.5
2016-12-07T08:31:09.112Z,31.5
2016-12-07T08:32:05.773Z,31.5
2016-12-07T08:33:14.076Z,31.5
2016-12-07T08:34:10.048Z,31.5
2016-12-07T08:35:09.815Z,31.5
2016-12-07T08:36:15.074Z,31.5
2016-12-07T08:37:17.315Z,31.5
2016-12-07T08:38:09.561Z,31.5
2016-12-07T08:39:16.492Z,31.5
2016-12-07T08:40:12.308Z,31.6
2016-12-07T08:41:17.059Z,31.6
2016-12-07T08:42:16.562Z,31.6
2016-12-07T08:43:22.403Z,31.6
2016-12-07T08:44:19.231Z,31.6
2016-12-07T08:45:23.385Z,31.5
2016-12-07T08:46:16.888Z,31.6
2016-12-07T08:47:15.438Z,31.6
2016-12-07T08:48:18.594Z,31.6
2016-12-07T08:49:17.270Z,31.6
2016-12-07T08:50:23.829Z,31.6
2016-12-07T08:51:15.532Z,31.6
2016-12-07T08:52:16.908Z,31.5
2016-12-07T08:53:35.660Z,31.6
2016-12-07T08:54:14.817Z,31.6
2016-12-07T08:55:06.845Z,31.5
2016-12-07T08:56:12.466Z,31.4
2016-12-07T08:57:10.223Z,31.2
2016-12-07T08:58:08.280Z,31
2016-12-07T08:59:10.373Z,30.8
2016-12-07T09:00:09.532Z,30.5
2016-12-07T09:01:11.288Z,30.2
2016-12-07T09:02:10.647Z,30
2016-12-07T09:03:10.701Z,29.8
2016-12-07T09:04:09.107Z,29.5
2016-12-07T09:05:08.043Z,29.4
2016-12-07T09:06:08.272Z,29.1
2016-12-07T09:07:07.471Z,29.1
2016-12-07T09:08:07.646Z,29
2016-12-07T09:09:13.798Z,28.9
2016-12-07T09:10:13.622Z,28.8
2016-12-07T09:11:09.905Z,28.7
2016-12-07T09:12:09.119Z,28.6
2016-12-07T09:13:13.966Z,28.5
2016-12-07T09:14:16.933Z,28.5
2016-12-07T09:15:09.334Z,28.4
2016-12-07T09:16:09.221Z,28.3
2016-12-07T09:17:21.542Z,28.3
2016-12-07T09:18:12.246Z,28.2
2016-12-07T09:23:41.111Z,27.9
2016-12-07T09:25:35.169Z,27.6
2016-12-07T09:26:46.081Z,27.5
2016-12-07T09:27:29.573Z,27.5
2016-12-07T09:28:41.577Z,27.4
2016-12-07T09:29:43.533Z,27.3
2016-12-07T09:30:20.345Z,27.2
2016-12-07T09:31:14.064Z,27.1
2016-12-07T09:32:14.887Z,27.1
2016-12-07T09:33:13.679Z,27
2016-12-07T09:34:14.757Z,27
2016-12-07T09:35:11.089Z,27
2016-12-07T09:36:08.933Z,27
2016-12-07T09:37:09.604Z,27
2016-12-07T09:38:08.098Z,26.9
2016-12-07T09:39:06.516Z,26.9
2016-12-07T09:40:12.336Z,26.9
2016-12-07T09:41:06.647Z,27
2016-12-07T09:42:07.590Z,27.1
2016-12-07T09:43:07.814Z,27.3
2016-12-07T09:44:23.420Z,27.4
2016-12-07T09:45:13.343Z,27.6
2016-12-07T09:46:09.301Z,27.7
2016-12-07T09:47:09.669Z,27.9
2016-12-07T09:48:10.020Z,28
2016-12-07T09:49:07.200Z,28.1
2016-12-07T09:50:05.812Z,28.2
2016-12-07T09:51:09.411Z,28.3
2016-12-07T09:52:10.304Z,28.5
2016-12-07T09:53:05.480Z,28.5
2016-12-07T09:54:05.581Z,28.6
2016-12-07T09:55:05.723Z,28.8
2016-12-07T09:56:07.766Z,28.9
2016-12-07T09:57:06.810Z,28.7
2016-12-07T09:58:06.117Z,29
2016-12-07T09:59:12.258Z,29.1
2016-12-07T10:00:11.462Z,29.2
2016-12-07T10:01:13.780Z,29.3
2016-12-07T10:02:14.277Z,29.3
2016-12-07T10:03:09.282Z,29.4
2016-12-07T10:04:09.214Z,29.5
2016-12-07T10:05:10.461Z,29.5
2016-12-07T10:06:05.965Z,29.6
2016-12-07T10:07:05.926Z,29.7
2016-12-07T10:08:09.884Z,29.7
2016-12-07T10:09:09.389Z,29.7
2016-12-07T10:10:06.112Z,29.8
2016-12-07T10:11:10.522Z,29.9
2016-12-07T10:12:11.298Z,29.9
2016-12-07T10:13:11.453Z,29.8
2016-12-07T10:14:08.017Z,30
2016-12-07T10:15:08.106Z,30.1
2016-12-07T10:16:09.413Z,30.1
2016-12-07T10:17:06.880Z,30.2
2016-12-07T10:18:09.589Z,30.2
2016-12-07T10:19:10.865Z,30.3
2016-12-07T10:20:10.906Z,30.3
2016-12-07T10:21:11.193Z,30.3
2016-12-07T10:22:08.925Z,30
2016-12-07T10:23:07.997Z,30.4
2016-12-07T10:24:14.930Z,30.4
2016-12-07T10:25:18.571Z,30.5
2016-12-07T10:26:12.794Z,30.5
2016-12-07T10:27:12.026Z,30.5
2016-12-07T10:28:12.626Z,30.6
2016-12-07T10:29:09.419Z,30.6
2016-12-07T10:30:11.696Z,30.7
2016-12-07T10:31:10.397Z,30.7
2016-12-07T10:32:16.809Z,30.7
2016-12-07T10:33:13.839Z,30.8
2016-12-07T10:34:13.017Z,30.8
2016-12-07T10:35:14.624Z,30.8
2016-12-07T10:36:07.969Z,30.9
2016-12-07T10:37:09.825Z,30.9
2016-12-07T10:38:09.890Z,30.9
2016-12-07T10:39:08.516Z,30.9
2016-12-07T10:40:13.338Z,31
2016-12-07T10:41:09.527Z,31
2016-12-07T10:42:08.417Z,31
2016-12-07T10:43:07.704Z,31
2016-12-07T10:44:12.078Z,31.1
2016-12-07T10:45:11.546Z,31.1
2016-12-07T10:46:10.173Z,31.1
2016-12-07T10:47:08.543Z,31.2
2016-12-07T10:48:11.718Z,31.2
2016-12-07T10:49:07.876Z,31.2
2016-12-07T10:50:11.087Z,31.3
2016-12-07T10:51:11.985Z,31.3
2016-12-07T10:52:11.464Z,31.3
2016-12-07T10:53:13.779Z,31.3
2016-12-07T10:54:08.859Z,31.3
2016-12-07T10:55:12.764Z,31.4
2016-12-07T10:56:13.740Z,31.4
2016-12-07T10:57:09.605Z,31.4
2016-12-07T10:58:13.964Z,31.4
2016-12-07T10:59:12.276Z,31.4
2016-12-07T11:00:11.937Z,31.5
2016-12-07T11:01:12.756Z,31.5
2016-12-07T11:02:10.359Z,31.5
2016-12-07T11:03:12.229Z,31.5
2016-12-07T11:04:11.581Z,31.5
2016-12-07T11:05:22.481Z,31.5
2016-12-07T11:06:10.547Z,31.5
2016-12-07T11:07:13.924Z,31.5
2016-12-07T11:08:11.214Z,31.5
2016-12-07T11:09:09.843Z,31.6
2016-12-07T11:10:10.289Z,31.6
2016-12-07T11:11:10.687Z,31.7
2016-12-07T11:12:12.957Z,31.7
2016-12-07T11:13:10.782Z,31.7
2016-12-07T11:14:09.118Z,31.8
2016-12-07T11:15:10.552Z,31.8
2016-12-07T11:16:13.190Z,31.8
2016-12-07T11:17:10.282Z,31.8
2016-12-07T11:18:14.895Z,31.9
2016-12-07T11:19:10.705Z,31.9
2016-12-07T11:20:14.821Z,31.9
2016-12-07T11:21:13.989Z,31.9
2016-12-07T11:22:13.336Z,32
2016-12-07T11:23:17.324Z,32
2016-12-07T11:24:17.477Z,32
2016-12-07T11:25:19.014Z,32
2016-12-07T11:26:15.737Z,32
2016-12-07T11:27:16.735Z,32
2016-12-07T11:28:12.428Z,32
2016-12-07T11:29:14.793Z,32.1
2016-12-07T11:30:15.125Z,32.1
2016-12-07T11:31:13.210Z,32.1
2016-12-07T11:32:13.348Z,32.1
2016-12-07T11:33:16.739Z,32.1
2016-12-07T11:34:15.668Z,32.1
2016-12-07T11:35:12.133Z,32.1
2016-12-07T11:36:17.663Z,32.1
2016-12-07T11:37:10.902Z,32.1
2016-12-07T11:38:18.956Z,32.2
2016-12-07T11:39:13.100Z,32.2
2016-12-07T11:40:23.106Z,32.1
2016-12-07T11:41:22.206Z,32.2
2016-12-07T11:42:20.451Z,32.2
2016-12-07T11:43:13.213Z,32.2
2016-12-07T11:45:21.447Z,32.2
2016-12-07T11:46:21.731Z,32.2
2016-12-07T11:47:17.677Z,32.2
2016-12-07T11:48:13.387Z,32.2
2016-12-07T11:49:16.271Z,32.2
2016-12-07T11:50:14.657Z,32.2
2016-12-07T11:51:16.455Z,32.3
2016-12-07T11:52:19.559Z,32.3
2016-12-07T11:53:15.841Z,32.3
2016-12-07T11:54:12.585Z,32.4
2016-12-07T11:55:14.391Z,32.4
2016-12-07T11:56:14.571Z,32.4
2016-12-07T11:57:11.841Z,32.4
2016-12-07T11:58:17.169Z,32.4
2016-12-07T11:59:12.742Z,32.5
2016-12-07T12:00:16.033Z,32.4
2016-12-07T12:01:15.476Z,32.5
2016-12-07T12:02:15.901Z,32.5
2016-12-07T12:03:15.657Z,32.5
2016-12-07T12:04:18.133Z,32.5
2016-12-07T12:05:11.792Z,32.2
2016-12-07T12:06:16.196Z,32
2016-12-07T12:07:16.037Z,31.6
2016-12-07T12:08:14.926Z,31.3
2016-12-07T12:09:12.713Z,31
2016-12-07T12:10:17.282Z,30.7
2016-12-07T12:11:21.109Z,30.5
2016-12-07T12:12:16.212Z,30.3
2016-12-07T12:13:16.069Z,30
2016-12-07T12:14:14.497Z,29.9
2016-12-07T12:15:14.223Z,29.7
2016-12-07T12:16:14.511Z,29.5
2016-12-07T12:17:12.544Z,29.4
2016-12-07T12:18:16.946Z,29.3
2016-12-07T12:19:17.483Z,29.2
2016-12-07T12:20:16.527Z,29
2016-12-07T12:21:21.356Z,29
2016-12-07T12:22:27.163Z,28.9
2016-12-07T12:23:15.412Z,28.8
2016-12-07T12:24:20.641Z,28.8
2016-12-07T12:25:18.883Z,28.6
2016-12-07T12:26:15.967Z,28.5
2016-12-07T12:27:16.196Z,28.4
2016-12-07T12:28:12.867Z,28.3
2016-12-07T12:29:16.352Z,28.1
2016-12-07T12:30:16.261Z,28
2016-12-07T12:31:13.048Z,27.9
2016-12-07T12:32:18.775Z,27.8
2016-12-07T12:33:17.545Z,27.7
2016-12-07T12:34:13.851Z,27.6
2016-12-07T12:35:17.295Z,27.6
2016-12-07T12:36:18.975Z,27.5
2016-12-07T12:37:13.430Z,27.5
2016-12-07T12:38:14.188Z,27.5
2016-12-07T12:39:18.893Z,27.6
2016-12-07T12:40:13.580Z,27.8
2016-12-07T12:41:14.214Z,28
2016-12-07T12:42:15.040Z,28.2
2016-12-07T12:43:17.037Z,28.4
2016-12-07T12:44:17.069Z,28.6
2016-12-07T12:45:13.775Z,28.8
2016-12-07T12:46:15.281Z,28.9
2016-12-07T12:47:17.046Z,29.1
2016-12-07T12:48:17.844Z,29.2
2016-12-07T12:49:14.001Z,29.3
2016-12-07T12:50:17.259Z,29.5
2016-12-07T12:51:18.741Z,29.6
2016-12-07T12:52:18.614Z,29.6
2016-12-07T12:53:17.284Z,29.8
2016-12-07T12:54:16.884Z,29.9
2016-12-07T12:55:20.119Z,29.9
2016-12-07T12:56:28.417Z,30
2016-12-07T12:57:20.438Z,30.1
2016-12-07T12:58:15.170Z,30.1
2016-12-07T12:59:18.715Z,30.2
2016-12-07T13:00:18.341Z,30.3
2016-12-07T13:01:14.624Z,30.3
2016-12-07T13:02:18.521Z,30.3
2016-12-07T13:03:19.329Z,30.4
2016-12-07T13:04:18.088Z,30.5
2016-12-07T13:05:15.300Z,30.5
2016-12-07T13:06:16.166Z,30.6
2016-12-07T13:07:29.656Z,30.6
2016-12-07T13:08:15.838Z,30.6
2016-12-07T13:09:16.237Z,30.7
2016-12-07T13:10:17.588Z,30.7
2016-12-07T13:11:19.690Z,30.8
2016-12-07T13:12:15.314Z,30.8
2016-12-07T13:13:21.398Z,30.9
2016-12-07T13:14:19.317Z,30.9
2016-12-07T13:15:15.304Z,30.9
2016-12-07T13:16:19.400Z,31
2016-12-07T13:17:19.401Z,31
2016-12-07T13:18:18.747Z,31
2016-12-07T13:19:19.389Z,31.1
2016-12-07T13:20:18.992Z,31.1
2016-12-07T13:21:16.605Z,31.1
2016-12-07T13:22:15.924Z,31.1
2016-12-07T13:23:19.833Z,31.2
2016-12-07T13:24:16.521Z,31.2
2016-12-07T13:25:23.278Z,31.2
2016-12-07T13:26:22.774Z,31.2
2016-12-07T13:27:22.333Z,31.3
2016-12-07T13:28:21.232Z,31.3
2016-12-07T13:29:16.612Z,31.3
2016-12-07T13:30:21.961Z,31.3